Washington Island, WI (54246)

9:08 AM CDT on August 31, 2015 (GMT -0500)
South Shore Drive | | Change Station
CLOSE
Current Station
Personal Weather Station
Location: Washington Island, WI
Elevation: 604 ft
Nearby Weather Stations

Elev 604 ft 45.34 °N, 86.89 °W | Updated 4 minutes ago

Overcast
Overcast
64.6 °F
Feels Like 64.6 °F
N
2.0
Wind Variable Wind from NE
Gusts 2.0 mph

Today
High -- | Low -- °F
--% Chance of Precip.
Yesterday
High -- | Low -- °F
Precip. -- in
6:07 AM 7:27 PM
Waning Gibbous, 95% visible
Pressure 29.98 in
Visibility 0.2 miles
Clouds Overcast 200 ft
Dew Point 64 °F
Humidity 99%
Rainfall 0.00 in
Snow Depth Not available.
UV 0.6 out of 12
Pollen 10.10 out of 12
Air Quality Not available.
Flu Activity Not available.
METAR KESC 311315Z AUTO 25003KT M1/4SM OVC002 17/17 A2998 RMK AO1
Pressure 29.98 in
Visibility 0.2 miles
Clouds Overcast 200 ft
Dew Point 64 °F
Humidity 99%
Rainfall 0.00 in
Snow Depth Not available.
UV 0.6 out of 12
Pollen 10.10 out of 12
Air Quality Not available.
Flu Activity Not available.
METAR KESC 311315Z AUTO 25003KT M1/4SM OVC002 17/17 A2998 RMK AO1

10-Day Weather Forecast

×

Almanac

Astronomy

Aug. 31, 2015 Rise Set
Actual Time
Civil Twilight
Nautical Twilight
Astronomical Twilight
Moon
Length of Visible Light
Length of Day
Tomorrow will be .
, % of the Moon is Illuminated

Today's Extremes

State Highs State Lows

Community

WunderPhotos

Upload Photos

1,851,243 photos uploaded!

WunderBlogs® & News

Nearby

Air Quality

  Air Quality AQ Index Pollutant
Not available.

Snow Depth

Station Depth Elevation

Earthquake Activity

City Distance Mag. Time & Date
Minimum magnitude displayed is 2.5.

Coastal Water Temperatures

Place Temperature

Stations

Nearby Weather Stations

Station Location Temp. Windchill Dew Point Humidity Wind Precip. Elev Updated Type